createdAt,value
2022-10-31T00:01:34.370Z,9.71
2022-10-31T00:04:02.931Z,9.68
2022-10-31T00:06:31.517Z,9.69
2022-10-31T00:09:03.062Z,9.68
2022-10-31T00:11:31.674Z,9.67
2022-10-31T00:14:00.555Z,9.71
2022-10-31T00:16:30.130Z,9.68
2022-10-31T00:19:00.996Z,9.64
2022-10-31T00:21:31.593Z,9.57
2022-10-31T00:24:02.033Z,9.58
2022-10-31T00:26:31.062Z,9.48
2022-10-31T00:28:59.892Z,9.53
2022-10-31T00:31:28.323Z,9.54
2022-10-31T00:33:56.854Z,9.53
2022-10-31T00:36:25.736Z,9.53
2022-10-31T00:38:54.237Z,9.47
2022-10-31T00:41:23.990Z,9.46
2022-10-31T00:43:52.538Z,9.43
2022-10-31T00:46:21.014Z,9.38
2022-10-31T00:48:49.426Z,9.29
2022-10-31T00:51:17.862Z,9.29
2022-10-31T00:53:46.434Z,9.23
2022-10-31T00:56:14.639Z,9.16
2022-10-31T00:58:44.572Z,9.10
2022-10-31T01:01:13.166Z,9.07
2022-10-31T01:03:42.119Z,9.05
2022-10-31T01:06:12.650Z,9.03
2022-10-31T01:08:41.529Z,8.95
2022-10-31T01:11:13.368Z,8.93
2022-10-31T01:13:43.531Z,8.86
2022-10-31T01:16:14.251Z,8.83
2022-10-31T01:18:42.858Z,8.90
2022-10-31T01:21:13.287Z,9.04
2022-10-31T01:23:41.902Z,9.01
2022-10-31T01:26:15.971Z,8.95
2022-10-31T01:28:48.359Z,8.78
2022-10-31T01:31:17.683Z,8.72
2022-10-31T01:33:46.816Z,8.67
2022-10-31T01:36:18.583Z,8.60
2022-10-31T01:38:47.478Z,8.62
2022-10-31T01:41:17.877Z,8.60
2022-10-31T01:43:53.968Z,8.58
2022-10-31T01:46:26.823Z,8.54
2022-10-31T01:48:56.924Z,8.49
2022-10-31T01:51:31.055Z,8.46
2022-10-31T01:54:03.542Z,8.69
2022-10-31T01:56:32.440Z,8.65
2022-10-31T01:59:04.327Z,8.58
2022-10-31T02:01:33.037Z,8.63
2022-10-31T02:04:01.441Z,8.60
2022-10-31T02:06:37.499Z,8.61
2022-10-31T02:09:07.955Z,8.63
2022-10-31T02:11:38.287Z,8.66
2022-10-31T02:14:07.904Z,8.65
2022-10-31T02:16:36.666Z,8.70
2022-10-31T02:19:08.105Z,8.66
2022-10-31T02:21:45.130Z,8.63
2022-10-31T02:24:54.925Z,8.60
2022-10-31T02:27:47.567Z,8.56
2022-10-31T02:30:21.082Z,8.65
2022-10-31T02:32:57.179Z,8.65
2022-10-31T02:35:37.259Z,8.54
2022-10-31T02:38:15.532Z,8.51
2022-10-31T02:40:53.537Z,8.42
2022-10-31T02:43:25.385Z,8.36
2022-10-31T02:46:00.505Z,8.34
2022-10-31T02:48:36.277Z,8.28
2022-10-31T02:51:07.211Z,8.44
2022-10-31T02:53:36.024Z,8.37
2022-10-31T02:56:08.878Z,8.35
2022-10-31T02:58:40.720Z,8.34
2022-10-31T03:01:54.295Z,8.24
2022-10-31T03:04:39.000Z,8.18
2022-10-31T03:07:11.105Z,8.19
2022-10-31T03:09:49.208Z,8.09
2022-10-31T03:12:23.258Z,8.02
2022-10-31T03:14:55.128Z,7.95
2022-10-31T03:17:28.894Z,7.90
2022-10-31T03:20:03.187Z,7.89
2022-10-31T03:22:34.212Z,7.89
2022-10-31T03:25:06.146Z,7.80
2022-10-31T03:27:38.145Z,7.81
2022-10-31T03:30:09.508Z,7.88
2022-10-31T03:32:43.503Z,7.83
2022-10-31T03:35:15.595Z,7.71
2022-10-31T03:37:45.309Z,7.67
2022-10-31T03:40:16.021Z,7.68
2022-10-31T03:42:49.614Z,7.63
2022-10-31T03:45:24.175Z,7.64
2022-10-31T03:47:54.091Z,7.63
2022-10-31T03:50:26.675Z,7.58
2022-10-31T03:53:00.166Z,7.55
2022-10-31T03:55:33.948Z,7.57
2022-10-31T03:58:08.902Z,7.65
2022-10-31T04:00:41.876Z,7.65
2022-10-31T04:03:14.271Z,7.69
2022-10-31T04:05:47.952Z,7.72
2022-10-31T04:08:20.149Z,7.69
2022-10-31T04:10:51.469Z,7.63
2022-10-31T04:13:24.839Z,7.59
2022-10-31T04:15:56.941Z,7.52
2022-10-31T04:18:26.109Z,7.57
2022-10-31T04:21:05.270Z,7.56
2022-10-31T04:23:34.679Z,7.61
2022-10-31T04:26:03.433Z,7.61
2022-10-31T04:28:31.654Z,7.62
2022-10-31T04:30:59.795Z,7.57
2022-10-31T04:33:29.707Z,7.63
2022-10-31T04:35:57.955Z,7.64
2022-10-31T04:38:28.378Z,7.67
2022-10-31T04:40:56.503Z,7.62
2022-10-31T04:43:25.289Z,7.69
2022-10-31T04:45:53.710Z,7.83
2022-10-31T04:48:22.565Z,7.77
2022-10-31T04:50:51.198Z,7.77
2022-10-31T04:53:19.688Z,7.85
2022-10-31T04:55:49.598Z,7.64
2022-10-31T05:00:54.487Z,7.57
2022-10-31T05:03:22.915Z,7.50
2022-10-31T05:05:51.578Z,7.35
2022-10-31T05:08:20.031Z,7.31
2022-10-31T05:10:50.380Z,7.23
2022-10-31T05:13:18.768Z,7.18
2022-10-31T05:15:46.971Z,7.16
2022-10-31T05:18:15.511Z,7.16
2022-10-31T05:20:43.776Z,7.19
2022-10-31T05:23:12.311Z,7.12
2022-10-31T05:25:42.594Z,7.17
2022-10-31T05:28:12.510Z,7.09
2022-10-31T05:30:41.117Z,7.02
2022-10-31T05:33:09.737Z,6.91
2022-10-31T05:35:38.389Z,6.88
2022-10-31T05:38:06.775Z,6.87
2022-10-31T05:40:35.876Z,6.87
2022-10-31T05:43:04.312Z,6.82
2022-10-31T05:45:35.072Z,6.84
2022-10-31T05:48:04.703Z,6.86
2022-10-31T05:50:35.246Z,6.85
2022-10-31T05:53:05.723Z,6.83
2022-10-31T05:55:34.649Z,6.82
2022-10-31T05:58:03.445Z,6.86
2022-10-31T06:00:35.907Z,6.90
2022-10-31T06:03:06.819Z,6.92
2022-10-31T06:05:36.233Z,6.90
2022-10-31T06:08:05.245Z,6.89
2022-10-31T06:10:33.815Z,6.80
2022-10-31T06:13:04.714Z,6.87
2022-10-31T06:15:34.476Z,6.92
2022-10-31T06:18:04.969Z,6.96
2022-10-31T06:20:33.376Z,6.94
2022-10-31T06:23:02.258Z,7.07
2022-10-31T06:25:31.075Z,7.08
2022-10-31T06:28:00.265Z,7.20
2022-10-31T06:30:29.890Z,7.25
2022-10-31T06:33:04.501Z,7.19
2022-10-31T06:35:33.652Z,7.14
2022-10-31T06:38:02.788Z,7.13
2022-10-31T06:40:31.715Z,7.13
2022-10-31T06:43:01.006Z,7.16
2022-10-31T06:45:29.693Z,7.10
2022-10-31T06:48:17.621Z,7.21
2022-10-31T06:50:46.527Z,7.28
2022-10-31T06:53:15.760Z,7.32
2022-10-31T06:55:45.167Z,7.42
2022-10-31T06:58:14.133Z,7.46
2022-10-31T07:00:42.868Z,7.51
2022-10-31T07:03:14.984Z,7.57
2022-10-31T07:05:44.204Z,7.64
2022-10-31T07:08:14.569Z,7.69
2022-10-31T07:10:44.848Z,7.76
2022-10-31T07:13:15.022Z,7.83
2022-10-31T07:15:45.087Z,7.89
2022-10-31T07:18:16.552Z,7.96
2022-10-31T07:20:45.154Z,8.06
2022-10-31T07:23:14.672Z,8.11
2022-10-31T07:25:43.629Z,8.21
2022-10-31T07:28:12.016Z,8.29
2022-10-31T07:30:40.916Z,8.37
2022-10-31T07:33:09.707Z,8.46
2022-10-31T07:35:40.152Z,8.54
2022-10-31T07:38:13.011Z,8.58
2022-10-31T07:40:42.221Z,8.73
2022-10-31T07:43:14.429Z,8.82
2022-10-31T07:45:43.246Z,8.85
2022-10-31T07:48:11.879Z,8.93
2022-10-31T07:50:42.021Z,9.01
2022-10-31T07:53:12.129Z,9.17
2022-10-31T07:55:41.986Z,9.16
2022-10-31T07:58:12.795Z,9.28
2022-10-31T08:00:44.507Z,9.38
2022-10-31T08:03:14.360Z,9.46
2022-10-31T08:05:47.356Z,9.53
2022-10-31T08:08:17.630Z,9.61
2022-10-31T08:10:45.969Z,9.69
2022-10-31T08:13:15.984Z,9.77
2022-10-31T08:15:45.591Z,9.82
2022-10-31T08:18:15.418Z,9.88
2022-10-31T08:20:46.686Z,9.96
2022-10-31T08:23:17.395Z,10.09
2022-10-31T08:25:48.258Z,10.17
2022-10-31T08:28:17.352Z,10.18
2022-10-31T08:30:47.355Z,10.34
2022-10-31T08:33:19.108Z,10.43
2022-10-31T08:35:49.859Z,10.54
2022-10-31T08:38:18.730Z,10.59
2022-10-31T08:40:51.124Z,10.71
2022-10-31T08:43:20.404Z,10.75
2022-10-31T08:45:52.326Z,10.84
2022-10-31T08:48:20.665Z,10.94
2022-10-31T08:50:51.623Z,11.01
2022-10-31T08:53:21.457Z,11.17
2022-10-31T08:55:49.952Z,11.27
2022-10-31T08:58:21.815Z,11.38
2022-10-31T09:00:52.619Z,11.54
2022-10-31T09:03:23.064Z,11.66
2022-10-31T09:05:56.500Z,11.75
2022-10-31T09:08:25.071Z,11.88
2022-10-31T09:10:54.329Z,12.07
2022-10-31T09:13:27.328Z,12.21
2022-10-31T09:15:58.763Z,12.30
2022-10-31T09:18:29.042Z,12.38
2022-10-31T09:21:01.168Z,12.43
2022-10-31T09:23:30.577Z,12.53
2022-10-31T09:26:02.029Z,12.63
2022-10-31T09:28:30.968Z,12.72
2022-10-31T09:30:59.510Z,12.90
2022-10-31T09:33:28.254Z,13.01
2022-10-31T09:35:56.676Z,13.07
2022-10-31T09:38:26.634Z,13.16
2022-10-31T09:41:03.780Z,13.29
2022-10-31T09:43:39.038Z,13.40
2022-10-31T09:46:12.721Z,13.52
2022-10-31T09:48:51.973Z,13.57
2022-10-31T09:51:25.672Z,13.63
2022-10-31T09:54:02.887Z,13.76
2022-10-31T09:56:36.238Z,13.77
2022-10-31T09:59:07.198Z,13.87
2022-10-31T10:01:43.433Z,13.99
2022-10-31T10:04:35.836Z,14.06
2022-10-31T10:07:10.751Z,14.22
2022-10-31T10:09:40.576Z,14.39
2022-10-31T10:12:19.551Z,14.50
2022-10-31T10:15:03.511Z,14.65
2022-10-31T10:17:40.884Z,14.77
2022-10-31T10:20:24.632Z,14.78
2022-10-31T10:23:03.953Z,14.80
2022-10-31T10:25:40.681Z,14.96
2022-10-31T10:28:20.675Z,15.09
2022-10-31T10:30:53.094Z,15.20
2022-10-31T10:33:30.950Z,15.29
2022-10-31T10:36:02.141Z,15.40
2022-10-31T10:38:37.247Z,15.56
2022-10-31T10:41:12.721Z,15.52
2022-10-31T10:43:42.250Z,15.57
2022-10-31T10:46:41.388Z,15.52
2022-10-31T10:49:20.285Z,15.84
2022-10-31T10:52:07.319Z,15.91
2022-10-31T10:54:49.917Z,15.93
2022-10-31T10:57:30.495Z,15.96
2022-10-31T11:00:01.943Z,16.09
2022-10-31T11:02:34.335Z,16.26
2022-10-31T11:05:05.766Z,16.35
2022-10-31T11:07:42.015Z,16.44
2022-10-31T11:10:16.562Z,16.43
2022-10-31T11:12:48.815Z,16.50
2022-10-31T11:15:25.085Z,16.65
2022-10-31T11:17:57.254Z,16.88
2022-10-31T11:20:32.613Z,16.98
2022-10-31T11:23:18.370Z,17.22
2022-10-31T11:25:56.516Z,17.25
2022-10-31T11:28:27.121Z,17.30
2022-10-31T11:30:58.454Z,17.32
2022-10-31T11:33:32.611Z,17.41
2022-10-31T11:36:02.795Z,17.47
2022-10-31T11:38:37.430Z,17.60
2022-10-31T11:41:17.490Z,17.67
2022-10-31T11:43:53.325Z,17.73
2022-10-31T11:46:25.307Z,17.63
2022-10-31T11:48:56.064Z,17.59
2022-10-31T11:51:26.476Z,17.76
2022-10-31T11:54:00.135Z,17.81
2022-10-31T11:56:41.041Z,17.98
2022-10-31T11:59:20.883Z,18.04
2022-10-31T12:01:51.842Z,17.96
2022-10-31T12:04:20.864Z,18.05
2022-10-31T12:06:51.990Z,18.18
2022-10-31T12:09:23.641Z,18.24
2022-10-31T12:12:06.553Z,18.32
2022-10-31T12:15:04.221Z,18.25
2022-10-31T12:17:40.891Z,18.25
2022-10-31T12:20:23.996Z,18.29
2022-10-31T12:23:01.556Z,18.25
2022-10-31T12:25:42.573Z,18.24
2022-10-31T12:28:27.395Z,18.26
2022-10-31T12:31:11.927Z,18.35
2022-10-31T12:33:53.099Z,18.27
2022-10-31T12:36:37.506Z,18.23
2022-10-31T12:39:26.947Z,18.23
2022-10-31T12:42:03.605Z,18.23
2022-10-31T12:45:09.341Z,18.33
2022-10-31T12:48:01.810Z,18.26
2022-10-31T12:50:39.366Z,18.32
2022-10-31T12:53:26.765Z,18.37
2022-10-31T12:56:07.978Z,18.43
2022-10-31T12:58:42.400Z,18.52
2022-10-31T13:01:17.180Z,18.56
2022-10-31T13:03:55.260Z,18.56
2022-10-31T13:06:30.059Z,18.53
2022-10-31T13:09:04.197Z,18.38
2022-10-31T13:11:37.901Z,18.34
2022-10-31T13:14:14.449Z,18.34
2022-10-31T13:16:46.340Z,18.24
2022-10-31T13:19:20.574Z,18.17
2022-10-31T13:22:00.575Z,18.08
2022-10-31T13:24:35.813Z,18.01
2022-10-31T13:27:12.113Z,18.17
2022-10-31T13:29:46.503Z,18.10
2022-10-31T13:32:14.888Z,18.05
2022-10-31T13:34:49.412Z,17.99
2022-10-31T13:37:24.240Z,17.93
2022-10-31T13:40:14.408Z,17.95
2022-10-31T13:43:00.428Z,17.92
2022-10-31T13:45:29.634Z,17.86
2022-10-31T13:48:01.785Z,17.83
2022-10-31T13:50:33.730Z,17.93
2022-10-31T13:53:17.519Z,18.01
2022-10-31T13:55:47.870Z,17.96
2022-10-31T13:58:27.347Z,18.04
2022-10-31T14:01:18.726Z,18.15
2022-10-31T14:04:07.827Z,18.10
2022-10-31T14:06:49.659Z,18.17
2022-10-31T14:09:25.152Z,18.27
2022-10-31T14:11:55.062Z,18.18
2022-10-31T14:14:26.244Z,18.23
2022-10-31T14:16:59.950Z,18.18
2022-10-31T14:19:29.215Z,18.10
2022-10-31T14:21:59.264Z,18.04
2022-10-31T14:24:39.597Z,17.88
2022-10-31T14:27:37.364Z,17.78
2022-10-31T14:30:24.676Z,17.69
2022-10-31T14:32:59.844Z,17.61
2022-10-31T14:35:38.228Z,17.53
2022-10-31T14:38:45.906Z,17.46
2022-10-31T14:41:38.116Z,17.38
2022-10-31T14:44:37.459Z,17.26
2022-10-31T14:47:18.721Z,17.22
2022-10-31T14:50:05.711Z,17.17
2022-10-31T14:52:35.316Z,17.14
2022-10-31T14:55:10.541Z,17.15
2022-10-31T14:57:40.872Z,17.18
2022-10-31T15:00:17.665Z,17.09
2022-10-31T15:02:54.229Z,17.03
2022-10-31T15:05:24.280Z,16.94
2022-10-31T15:07:54.718Z,16.90
2022-10-31T15:10:27.689Z,16.82
2022-10-31T15:12:56.404Z,16.71
2022-10-31T15:15:27.328Z,16.64
2022-10-31T15:17:58.911Z,16.56
2022-10-31T15:20:30.042Z,16.52
2022-10-31T15:23:00.357Z,16.30
2022-10-31T15:25:32.907Z,16.23
2022-10-31T15:28:01.858Z,16.14
2022-10-31T15:30:31.958Z,16.09
2022-10-31T15:33:00.347Z,15.97
2022-10-31T15:35:31.296Z,15.93
2022-10-31T15:38:02.857Z,15.84
2022-10-31T15:40:33.582Z,15.77
2022-10-31T15:43:04.687Z,15.72
2022-10-31T15:45:34.322Z,15.69
2022-10-31T15:48:06.999Z,15.62
2022-10-31T15:50:38.651Z,15.54
2022-10-31T15:53:09.413Z,15.46
2022-10-31T15:55:48.339Z,15.39
2022-10-31T15:58:19.281Z,15.29
2022-10-31T16:00:58.843Z,15.26
2022-10-31T16:03:29.230Z,15.19
2022-10-31T16:05:59.988Z,15.13
2022-10-31T16:08:35.435Z,15.10
2022-10-31T16:11:20.513Z,15.01
2022-10-31T16:13:57.576Z,14.93
2022-10-31T16:16:35.322Z,14.87
2022-10-31T16:19:06.938Z,14.84
2022-10-31T16:21:39.013Z,14.71
2022-10-31T16:24:19.157Z,14.65
2022-10-31T16:26:52.938Z,14.66
2022-10-31T16:29:29.947Z,14.73
2022-10-31T16:31:59.128Z,14.64
2022-10-31T16:34:28.451Z,14.61
2022-10-31T16:36:57.201Z,14.53
2022-10-31T16:39:25.799Z,14.45
2022-10-31T16:41:59.084Z,14.33
2022-10-31T16:44:29.448Z,14.24
2022-10-31T16:47:16.771Z,14.12
2022-10-31T16:49:46.472Z,14.05
2022-10-31T16:52:15.374Z,13.89
2022-10-31T16:54:43.866Z,13.93
2022-10-31T16:57:18.081Z,13.97
2022-10-31T16:59:49.749Z,14.08
2022-10-31T17:02:20.069Z,14.04
2022-10-31T17:04:50.896Z,13.94
2022-10-31T17:07:22.255Z,13.84
2022-10-31T17:09:50.507Z,13.82
2022-10-31T17:12:23.500Z,13.71
2022-10-31T17:14:53.963Z,13.58
2022-10-31T17:17:23.769Z,13.57
2022-10-31T17:19:52.224Z,13.45
2022-10-31T17:22:20.579Z,13.27
2022-10-31T17:24:48.898Z,13.29
2022-10-31T17:27:17.719Z,13.27
2022-10-31T17:29:47.453Z,13.26
2022-10-31T17:32:16.491Z,13.44
2022-10-31T17:34:44.882Z,13.35
2022-10-31T17:37:14.052Z,13.30
2022-10-31T17:39:44.097Z,13.26
2022-10-31T17:42:13.342Z,13.21
2022-10-31T17:44:42.300Z,13.11
2022-10-31T17:47:12.791Z,13.05
2022-10-31T17:49:41.232Z,12.86
2022-10-31T17:52:10.414Z,12.76
2022-10-31T17:54:39.032Z,12.79
2022-10-31T17:57:07.591Z,12.68
2022-10-31T17:59:36.469Z,12.52
2022-10-31T18:02:09.265Z,12.46
2022-10-31T18:04:40.619Z,12.31
2022-10-31T18:07:11.026Z,12.39
2022-10-31T18:09:39.742Z,12.42
2022-10-31T18:12:08.133Z,12.28
2022-10-31T18:14:36.675Z,12.26
2022-10-31T18:17:05.934Z,12.07
2022-10-31T18:19:34.410Z,11.98
2022-10-31T18:22:04.945Z,11.90
2022-10-31T18:24:33.475Z,11.84
2022-10-31T18:27:02.006Z,11.74
2022-10-31T18:29:30.493Z,11.68
2022-10-31T18:31:59.080Z,11.66
2022-10-31T18:34:27.636Z,11.62
2022-10-31T18:36:57.075Z,11.58
2022-10-31T18:39:27.488Z,11.53
2022-10-31T18:41:57.301Z,11.64
2022-10-31T18:44:26.941Z,11.64
2022-10-31T18:46:56.070Z,11.52
2022-10-31T18:49:24.996Z,11.54
2022-10-31T18:51:54.681Z,11.51
2022-10-31T18:54:23.156Z,11.43
2022-10-31T18:56:53.273Z,11.42
2022-10-31T18:59:21.869Z,11.32
2022-10-31T19:01:51.715Z,11.25
2022-10-31T19:04:20.691Z,11.16
2022-10-31T19:06:50.135Z,11.09
2022-10-31T19:09:19.679Z,11.10
2022-10-31T19:11:48.900Z,11.05
2022-10-31T19:14:19.218Z,10.97
2022-10-31T19:16:51.928Z,10.86
2022-10-31T19:19:21.207Z,10.72
2022-10-31T19:21:49.891Z,10.68
2022-10-31T19:24:18.881Z,10.65
2022-10-31T19:26:48.003Z,10.58
2022-10-31T19:29:16.905Z,10.53
2022-10-31T19:31:48.773Z,10.51
2022-10-31T19:34:18.314Z,10.54
2022-10-31T19:36:47.085Z,10.40
2022-10-31T19:39:16.841Z,10.36
2022-10-31T19:41:46.808Z,10.30
2022-10-31T19:44:16.236Z,10.26
2022-10-31T19:46:52.733Z,10.22
2022-10-31T19:49:24.862Z,10.13
2022-10-31T19:51:54.227Z,10.03
2022-10-31T19:54:23.261Z,10.08
2022-10-31T19:56:52.118Z,10.05
2022-10-31T19:59:20.814Z,10.00
2022-10-31T20:01:49.441Z,9.95
2022-10-31T20:04:17.998Z,9.96
2022-10-31T20:06:48.725Z,9.89
2022-10-31T20:09:17.333Z,9.80
2022-10-31T20:11:47.957Z,9.77
2022-10-31T20:14:17.995Z,9.71
2022-10-31T20:16:47.336Z,9.71
2022-10-31T20:19:16.255Z,9.70
2022-10-31T20:21:44.943Z,9.66
2022-10-31T20:24:15.503Z,9.63
2022-10-31T20:26:44.130Z,9.62
2022-10-31T20:29:16.325Z,9.74
2022-10-31T20:31:46.355Z,9.85
2022-10-31T20:34:15.587Z,9.77
2022-10-31T20:36:44.589Z,9.74
2022-10-31T20:39:15.701Z,9.70
2022-10-31T20:41:44.134Z,9.79
2022-10-31T20:44:13.039Z,9.71
2022-10-31T20:46:41.406Z,9.61
2022-10-31T20:49:10.394Z,9.57
2022-10-31T20:51:39.085Z,9.50
2022-10-31T20:54:08.095Z,9.41
2022-10-31T20:56:37.787Z,9.52
2022-10-31T20:59:07.620Z,9.32
2022-10-31T21:01:38.081Z,9.44
2022-10-31T21:04:12.153Z,9.33
2022-10-31T21:06:44.005Z,9.40
2022-10-31T21:09:14.983Z,9.37
2022-10-31T21:11:46.868Z,9.40
2022-10-31T21:14:15.324Z,9.56
2022-10-31T21:16:43.771Z,9.56
2022-10-31T21:19:13.207Z,9.56
2022-10-31T21:21:41.955Z,9.63
2022-10-31T21:24:13.871Z,9.65
2022-10-31T21:26:48.467Z,9.64
2022-10-31T21:29:17.660Z,9.48
2022-10-31T21:31:46.694Z,9.36
2022-10-31T21:34:16.197Z,9.38
2022-10-31T21:36:44.790Z,9.28
2022-10-31T21:39:13.765Z,9.24
2022-10-31T21:41:42.162Z,9.26
2022-10-31T21:44:12.161Z,9.25
2022-10-31T21:46:42.485Z,9.31
2022-10-31T21:49:12.738Z,9.25
2022-10-31T21:51:43.072Z,9.22
2022-10-31T21:54:30.378Z,9.14
2022-10-31T21:57:00.398Z,9.13
2022-10-31T21:59:30.897Z,9.05
2022-10-31T22:02:01.160Z,9.09
2022-10-31T22:04:30.209Z,9.09
2022-10-31T22:06:59.326Z,9.12
2022-10-31T22:09:28.062Z,9.14
2022-10-31T22:11:57.972Z,9.16
2022-10-31T22:14:26.629Z,9.12
2022-10-31T22:16:56.787Z,9.26
2022-10-31T22:19:26.189Z,9.25
2022-10-31T22:21:55.199Z,9.21
2022-10-31T22:24:24.803Z,9.33
2022-10-31T22:26:53.804Z,9.38
2022-10-31T22:29:23.212Z,9.35
2022-10-31T22:31:58.717Z,9.46
2022-10-31T22:34:33.271Z,9.44
2022-10-31T22:37:02.337Z,9.52
2022-10-31T22:39:31.467Z,9.50
2022-10-31T22:42:02.686Z,9.76
2022-10-31T22:44:31.151Z,9.73
2022-10-31T22:47:00.269Z,9.63
2022-10-31T22:49:28.733Z,9.59
2022-10-31T22:52:03.285Z,9.52
2022-10-31T22:54:32.930Z,9.48
2022-10-31T22:57:01.721Z,9.45
2022-10-31T22:59:30.323Z,9.41
2022-10-31T23:01:59.222Z,9.37
2022-10-31T23:04:28.081Z,9.39
2022-10-31T23:06:58.116Z,9.40
2022-10-31T23:09:27.948Z,9.46
2022-10-31T23:12:16.501Z,9.52
2022-10-31T23:14:44.745Z,9.51
2022-10-31T23:17:18.041Z,9.57
2022-10-31T23:19:47.994Z,9.56
2022-10-31T23:22:18.295Z,9.50
2022-10-31T23:24:51.086Z,9.61
2022-10-31T23:27:21.228Z,9.58
2022-10-31T23:29:52.021Z,9.55
2022-10-31T23:32:22.390Z,9.52
2022-10-31T23:34:52.811Z,9.58
2022-10-31T23:37:26.154Z,9.61
2022-10-31T23:39:55.545Z,9.58
2022-10-31T23:42:24.826Z,9.56
2022-10-31T23:44:53.919Z,9.43
2022-10-31T23:47:23.536Z,9.32
2022-10-31T23:49:53.891Z,9.21
2022-10-31T23:52:23.776Z,9.10
2022-10-31T23:54:52.476Z,9.08
2022-10-31T23:57:21.139Z,9.03
2022-10-31T23:59:49.756Z,9.00
